Time;durP1;ratioP1;P1;durP2;ratioP2;P2;SDS_P1;SDS_P2;PMS_P1;PMS_P2;Temp;Humidity;BMP_temperature;BMP_pressure;BME280_temperature;BME280_humidity;BME280_pressure;Samples;Min_cycle;Max_cycle;Signal;HPM_P1;HPM_P2
2022/01/20 00:03:16;;;;;;;32.53;20.95;;;7.50;99.90;;;;;;5027702;28;20022;-94
2022/01/20 00:27:21;;;;;;;28.75;18.52;;;7.10;99.90;;;;;;5021775;28;20061;-93
2022/01/20 00:30:28;;;;;;;31.58;18.70;;;7.10;99.90;;;;;;5022900;28;20034;-93
2022/01/20 00:32:53;;;;;;;29.65;19.92;;;7.20;99.90;;;;;;5024397;28;20022;-92
2022/01/20 00:35:26;;;;;;;29.17;19.50;;;7.20;99.90;;;;;;5023464;28;20322;-93
2022/01/20 00:37:52;;;;;;;33.72;21.25;;;7.20;99.90;;;;;;5023099;28;20029;-93
2022/01/20 00:40:18;;;;;;;29.27;19.30;;;7.30;99.90;;;;;;5022881;28;20042;-93
2022/01/20 00:42:44;;;;;;;27.30;18.38;;;7.30;99.90;;;;;;5022756;28;20061;-93
2022/01/20 00:45:10;;;;;;;30.13;18.70;;;7.30;99.90;;;;;;5022850;28;20026;-93
2022/01/20 00:47:38;;;;;;;23.33;16.45;;;7.30;99.90;;;;;;5022817;28;20022;-92
2022/01/20 00:50:07;;;;;;;23.27;16.13;;;7.30;99.90;;;;;;5022168;28;20026;-92
2022/01/20 00:52:35;;;;;;;23.52;16.73;;;7.30;99.90;;;;;;5022791;28;20018;-92
2022/01/20 00:55:04;;;;;;;23.42;16.02;;;7.30;99.90;;;;;;5022763;28;20318;-93
2022/01/20 00:57:30;;;;;;;23.55;15.85;;;7.40;99.90;;;;;;5022562;28;20075;-93
2022/01/20 00:59:56;;;;;;;23.35;15.10;;;7.40;99.90;;;;;;5022549;28;20037;-93
2022/01/20 01:02:22;;;;;;;19.95;14.73;;;7.30;99.90;;;;;;5023496;28;20061;-93
2022/01/20 01:04:48;;;;;;;20.80;14.38;;;7.30;99.90;;;;;;5022401;28;20049;-92
2022/01/20 01:07:44;;;;;;;21.00;14.43;;;7.30;99.90;;;;;;5022092;28;20029;-93
2022/01/20 01:10:13;;;;;;;20.60;14.15;;;7.30;99.90;;;;;;5022447;28;20149;-93
2022/01/20 01:15:31;;;;;;;20.98;14.00;;;7.40;99.90;;;;;;5028541;28;20037;-92
2022/01/20 01:21:10;;;;;;;21.67;13.93;;;7.30;99.90;;;;;;5026665;28;20040;-93
2022/01/20 01:23:36;;;;;;;24.73;14.88;;;7.30;99.90;;;;;;5019207;28;20029;-93
2022/01/20 01:26:17;;;;;;;19.98;13.80;;;7.40;99.90;;;;;;5021537;28;20041;-93
2022/01/20 01:28:43;;;;;;;18.83;13.90;;;7.40;99.90;;;;;;5022335;28;20336;-93
2022/01/20 01:34:05;;;;;;;19.20;13.02;;;7.50;99.90;;;;;;5022996;28;20056;-92
2022/01/20 01:36:46;;;;;;;19.33;12.90;;;7.50;99.90;;;;;;5021948;28;20030;-93
2022/01/20 01:39:12;;;;;;;19.00;12.77;;;7.40;99.90;;;;;;5021768;28;20029;-93
2022/01/20 01:41:39;;;;;;;19.98;13.50;;;7.30;99.90;;;;;;5021518;28;20380;-92
2022/01/20 01:44:08;;;;;;;21.23;13.70;;;7.30;99.90;;;;;;5021360;28;20120;-92
2022/01/20 01:46:36;;;;;;;20.05;13.57;;;7.30;99.90;;;;;;5027763;28;20018;-92
2022/01/20 01:49:03;;;;;;;18.83;13.13;;;7.40;99.90;;;;;;5021674;28;20037;-92
2022/01/20 01:51:28;;;;;;;20.20;14.05;;;7.40;99.90;;;;;;5020881;28;20026;-93
2022/01/20 01:53:54;;;;;;;17.77;12.57;;;7.50;99.90;;;;;;5017589;28;20309;-92
2022/01/20 01:56:23;;;;;;;17.23;11.90;;;7.40;99.90;;;;;;5021509;28;20021;-93
2022/01/20 01:58:49;;;;;;;18.52;12.90;;;7.50;99.90;;;;;;5020484;28;20076;-93
2022/01/20 02:01:15;;;;;;;16.67;12.05;;;7.60;99.90;;;;;;5020557;28;20104;-93
2022/01/20 02:03:46;;;;;;;18.80;12.80;;;7.50;99.90;;;;;;5021015;28;20068;-92
2022/01/20 02:07:16;;;;;;;18.58;12.65;;;7.50;99.90;;;;;;5020764;28;20026;-94
2022/01/20 02:09:23;;;;;;;17.23;11.80;;;7.60;99.90;;;;;;5021505;28;20029;-92
2022/01/20 02:20:02;;;;;;;16.27;11.30;;;7.50;99.90;;;;;;5022382;28;20083;-92
2022/01/20 02:22:30;;;;;;;19.90;12.82;;;7.50;99.90;;;;;;5020793;28;20034;-93
2022/01/20 02:24:56;;;;;;;17.10;12.25;;;7.40;99.90;;;;;;5020928;28;20310;-92
2022/01/20 02:27:22;;;;;;;18.08;12.85;;;7.40;99.90;;;;;;5021252;28;20025;-94
2022/01/20 02:29:47;;;;;;;22.75;13.35;;;7.40;99.90;;;;;;5020473;28;20037;-93
2022/01/20 02:32:13;;;;;;;18.80;12.45;;;7.50;99.90;;;;;;5020846;28;20097;-92
2022/01/20 02:34:39;;;;;;;17.52;12.50;;;7.50;99.90;;;;;;5020835;28;20064;-92
2022/01/20 02:37:10;;;;;;;17.15;12.32;;;7.60;99.90;;;;;;5020832;28;20030;-95
2022/01/20 02:44:53;;;;;;;18.83;12.15;;;7.60;99.90;;;;;;5021793;28;20036;-93
2022/01/20 02:47:28;;;;;;;18.60;11.60;;;7.50;99.90;;;;;;5021842;28;20014;-93
2022/01/20 02:49:54;;;;;;;18.48;12.07;;;7.50;99.90;;;;;;5020134;28;20053;-93
2022/01/20 02:52:23;;;;;;;17.60;12.00;;;7.40;99.90;;;;;;5020759;28;20018;-94
2022/01/20 02:54:50;;;;;;;18.30;11.38;;;7.40;99.90;;;;;;5019986;28;20033;-93
2022/01/20 02:57:24;;;;;;;18.73;11.90;;;7.40;99.90;;;;;;5020117;28;20018;-94
2022/01/20 02:59:50;;;;;;;19.42;12.13;;;7.30;99.90;;;;;;5020413;28;20033;-93
2022/01/20 03:02:16;;;;;;;19.92;11.57;;;7.40;99.90;;;;;;5021627;28;20022;-94
2022/01/20 03:04:42;;;;;;;19.80;11.82;;;7.40;99.90;;;;;;5019891;28;20021;-93
2022/01/20 03:07:08;;;;;;;16.73;11.93;;;7.50;99.90;;;;;;5017066;28;20022;-92
2022/01/20 03:09:34;;;;;;;16.20;10.70;;;7.50;99.90;;;;;;5020968;28;20030;-93
2022/01/20 03:12:03;;;;;;;18.02;11.57;;;7.50;99.90;;;;;;5020108;28;20206;-92
2022/01/20 03:14:31;;;;;;;17.10;11.60;;;7.60;99.90;;;;;;5020874;28;20022;-92
2022/01/20 03:16:58;;;;;;;16.92;10.10;;;7.60;99.90;;;;;;5020324;28;20022;-94
2022/01/20 03:19:23;;;;;;;15.43;10.45;;;7.60;99.90;;;;;;5020971;28;20037;-91
2022/01/20 03:21:52;;;;;;;14.52;10.57;;;7.60;99.90;;;;;;5020466;28;20096;-92
2022/01/20 03:24:20;;;;;;;16.77;10.43;;;7.60;99.90;;;;;;5020705;28;20095;-93
2022/01/20 03:26:58;;;;;;;;;;;;;;;;;;;;;
2022/01/20 03:29:30;;;;;;;16.17;11.07;;;7.60;99.90;;;;;;5021513;28;20050;-93
2022/01/20 03:32:08;;;;;;;;;;;;;;;;;;;;;
2022/01/20 03:34:35;;;;;;;16.48;11.38;;;7.70;99.90;;;;;;5022762;28;20052;-93
2022/01/20 03:37:04;;;;;;;15.15;10.02;;;7.70;99.90;;;;;;5019892;28;20025;-94
2022/01/20 03:39:31;;;;;;;17.98;10.75;;;7.80;99.90;;;;;;5022092;28;20433;-91
2022/01/20 03:41:57;;;;;;;16.15;10.38;;;7.80;99.90;;;;;;5026653;28;20026;-92
2022/01/20 03:44:31;;;;;;;16.63;10.68;;;7.80;99.90;;;;;;5028604;28;20084;-91
2022/01/20 03:47:00;;;;;;;15.27;10.30;;;7.80;99.90;;;;;;5021029;28;20036;-91
2022/01/20 03:49:39;;;;;;;14.38;10.52;;;7.70;99.90;;;;;;5020238;28;20101;-93
2022/01/20 03:52:08;;;;;;;24.98;12.00;;;7.70;99.90;;;;;;5023093;28;20029;-94
2022/01/20 03:54:34;;;;;;;15.00;10.13;;;7.70;99.90;;;;;;5024724;28;20088;-95
2022/01/20 03:57:00;;;;;;;17.38;11.55;;;7.70;99.90;;;;;;5023691;28;20029;-93
2022/01/20 03:59:26;;;;;;;16.20;11.13;;;7.70;99.90;;;;;;5023449;28;20038;-91
2022/01/20 04:01:51;;;;;;;19.52;12.32;;;7.60;99.90;;;;;;5023484;28;20044;-93
2022/01/20 04:04:17;;;;;;;21.90;13.18;;;7.60;99.90;;;;;;5023072;28;20092;-92
2022/01/20 04:06:43;;;;;;;19.98;12.90;;;7.60;99.90;;;;;;5023025;28;20030;-92
2022/01/20 04:09:12;;;;;;;55.50;15.65;;;7.50;99.90;;;;;;5023727;28;20025;-92
2022/01/20 04:11:40;;;;;;;21.73;12.98;;;7.40;99.90;;;;;;5023164;28;20018;-92
2022/01/20 04:14:07;;;;;;;22.65;13.82;;;7.40;99.90;;;;;;5023873;28;20021;-93
2022/01/20 04:17:02;;;;;;;22.58;13.93;;;7.40;99.90;;;;;;5023218;28;20021;-94
2022/01/20 04:19:30;;;;;;;30.70;16.15;;;7.40;99.90;;;;;;5023182;28;20034;-91
2022/01/20 04:21:57;;;;;;;24.67;14.98;;;7.40;99.90;;;;;;5022923;28;20025;-92
2022/01/20 04:24:31;;;;;;;25.40;15.63;;;7.40;99.90;;;;;;5023360;28;20344;-93
2022/01/20 04:27:00;;;;;;;28.17;15.65;;;7.40;99.90;;;;;;5022897;28;20026;-94
2022/01/20 04:29:26;;;;;;;32.63;17.92;;;7.40;99.90;;;;;;5023926;28;20053;-93
2022/01/20 04:31:52;;;;;;;27.70;17.02;;;7.40;99.90;;;;;;5023165;28;20030;-92
2022/01/20 04:34:18;;;;;;;26.45;16.48;;;7.30;99.90;;;;;;5023122;28;20018;-91
2022/01/20 04:36:46;;;;;;;26.75;16.50;;;7.40;99.90;;;;;;5019783;28;20033;-92
2022/01/20 04:39:20;;;;;;;25.77;17.13;;;7.30;99.90;;;;;;5023012;28;20396;-92
2022/01/20 04:41:47;;;;;;;27.38;16.95;;;7.30;99.90;;;;;;5023114;28;20310;-94
2022/01/20 04:44:30;;;;;;;29.15;18.00;;;7.30;99.90;;;;;;5023318;28;20225;-94
2022/01/20 04:47:13;;;;;;;28.13;17.13;;;7.20;99.90;;;;;;5022972;28;20052;-93
2022/01/20 04:57:54;;;;;;;29.30;17.65;;;7.10;99.90;;;;;;5023903;28;20084;-94
2022/01/20 05:00:20;;;;;;;35.67;19.30;;;7.10;99.90;;;;;;5022275;28;20109;-93
2022/01/20 05:02:45;;;;;;;30.52;18.40;;;7.10;99.90;;;;;;5022062;28;20140;-92
2022/01/20 05:05:11;;;;;;;34.30;19.13;;;7.10;99.90;;;;;;5023021;28;20026;-91
2022/01/20 05:07:37;;;;;;;58.85;22.52;;;7.10;99.90;;;;;;5022119;28;20018;-91
2022/01/20 05:10:07;;;;;;;39.00;20.70;;;7.10;99.90;;;;;;5022221;28;20033;-93
2022/01/20 05:15:17;;;;;;;34.65;21.10;;;7.10;99.90;;;;;;5021052;28;20318;-93
2022/01/20 05:17:43;;;;;;;40.92;22.58;;;7.10;99.90;;;;;;5021676;28;20037;-92
2022/01/20 05:20:10;;;;;;;44.55;23.65;;;7.10;99.90;;;;;;5022609;28;20067;-91
2022/01/20 05:22:35;;;;;;;38.70;23.33;;;7.10;99.90;;;;;;5021668;28;20030;-92
2022/01/20 05:25:02;;;;;;;52.83;24.80;;;7.20;99.90;;;;;;5022243;28;20107;-92
2022/01/20 05:27:28;;;;;;;43.20;23.20;;;7.10;99.90;;;;;;5022478;28;20096;-93
2022/01/20 05:29:55;;;;;;;43.15;24.10;;;7.20;99.90;;;;;;5022438;28;20340;-93
2022/01/20 05:32:22;;;;;;;43.67;23.30;;;7.20;99.90;;;;;;5022003;28;20022;-91
2022/01/20 05:34:48;;;;;;;63.55;26.00;;;7.20;99.90;;;;;;5025985;28;20022;-92
2022/01/20 05:37:14;;;;;;;45.53;25.02;;;7.20;99.90;;;;;;5021392;28;20104;-93
2022/01/20 05:39:41;;;;;;;46.97;25.48;;;7.20;99.90;;;;;;5021994;28;20108;-91
2022/01/20 05:42:07;;;;;;;42.50;23.98;;;7.20;99.90;;;;;;5021251;28;20049;-92
2022/01/20 05:44:33;;;;;;;51.92;24.98;;;7.20;99.90;;;;;;5022082;28;20061;-93
2022/01/20 05:47:05;;;;;;;44.65;25.52;;;7.20;99.90;;;;;;5021443;28;20226;-92
2022/01/20 05:49:31;;;;;;;41.00;23.85;;;7.30;99.90;;;;;;5021421;28;20389;-94
2022/01/20 05:51:59;;;;;;;42.08;24.50;;;7.30;99.90;;;;;;5020959;28;20014;-94
2022/01/20 05:54:25;;;;;;;53.40;26.15;;;7.20;99.90;;;;;;5021958;28;20444;-94
2022/01/20 05:56:51;;;;;;;48.92;26.20;;;7.10;99.90;;;;;;5021884;28;20240;-91
2022/01/20 05:59:17;;;;;;;52.75;28.92;;;7.10;99.90;;;;;;5022496;28;20109;-92
2022/01/20 06:01:46;;;;;;;51.65;27.35;;;7.10;99.90;;;;;;5020192;28;20071;-94
2022/01/20 06:04:12;;;;;;;52.55;27.95;;;7.10;99.90;;;;;;5022318;28;20034;-94
2022/01/20 06:06:38;;;;;;;48.10;26.90;;;7.10;99.90;;;;;;5029793;28;20041;-91
2022/01/20 06:09:08;;;;;;;55.97;28.00;;;7.00;99.90;;;;;;5027032;28;20029;-91
2022/01/20 06:11:35;;;;;;;55.58;28.95;;;7.10;99.90;;;;;;5020955;28;20057;-93
2022/01/20 06:14:13;;;;;;;53.10;27.85;;;7.00;99.90;;;;;;5019978;28;20038;-93
2022/01/20 06:16:41;;;;;;;73.10;30.50;;;7.10;99.90;;;;;;5025840;28;20378;-93
2022/01/20 06:19:06;;;;;;;53.35;27.52;;;7.00;99.90;;;;;;5030615;28;20494;-92
2022/01/20 06:21:32;;;;;;;55.97;29.00;;;7.10;99.90;;;;;;5029532;28;20025;-92
2022/01/20 06:23:58;;;;;;;50.03;27.65;;;7.10;99.90;;;;;;5029853;28;20017;-93
2022/01/20 06:26:23;;;;;;;51.90;27.45;;;7.20;99.90;;;;;;5029790;28;20036;-91
2022/01/20 06:28:49;;;;;;;61.05;29.67;;;7.20;99.90;;;;;;5024272;28;20022;-91
2022/01/20 06:31:16;;;;;;;60.13;30.20;;;7.20;99.90;;;;;;5029801;28;20258;-91
2022/01/20 06:33:42;;;;;;;58.38;29.85;;;7.20;99.90;;;;;;5029132;28;20017;-92
2022/01/20 06:36:08;;;;;;;60.22;30.77;;;7.10;99.90;;;;;;5028950;28;20025;-92
2022/01/20 06:38:33;;;;;;;102.35;32.65;;;7.10;99.90;;;;;;5030981;28;20040;-92
2022/01/20 06:40:59;;;;;;;57.42;30.15;;;7.10;99.90;;;;;;5018302;28;20100;-92
2022/01/20 06:43:26;;;;;;;56.03;29.30;;;7.10;99.90;;;;;;5011098;28;20258;-93
2022/01/20 06:45:52;;;;;;;58.70;29.92;;;7.20;99.90;;;;;;5013800;28;20037;-93
2022/01/20 06:48:18;;;;;;;94.97;35.35;;;7.20;99.90;;;;;;5016716;28;20022;-93
2022/01/20 06:50:44;;;;;;;61.10;32.45;;;7.30;99.90;;;;;;5014038;28;20386;-91
2022/01/20 06:53:09;;;;;;;184.60;39.33;;;7.30;99.90;;;;;;5016086;28;20026;-92
2022/01/20 06:55:35;;;;;;;55.67;30.20;;;7.20;99.90;;;;;;5018554;28;20035;-92
2022/01/20 06:58:01;;;;;;;72.78;29.40;;;7.20;99.90;;;;;;5018104;28;20026;-92
2022/01/20 07:00:27;;;;;;;53.83;28.75;;;7.20;99.90;;;;;;5013490;28;20044;-90
2022/01/20 07:02:53;;;;;;;74.18;31.65;;;7.20;99.90;;;;;;5032291;28;20048;-89
2022/01/20 07:05:21;;;;;;;57.88;30.13;;;7.20;99.90;;;;;;5028367;28;20025;-89
2022/01/20 07:07:47;;;;;;;59.00;28.67;;;7.10;99.90;;;;;;5028384;28;20026;-90
2022/01/20 07:10:16;;;;;;;54.60;29.95;;;7.10;99.90;;;;;;5028080;28;20387;-90
2022/01/20 07:12:44;;;;;;;52.22;28.33;;;7.10;99.90;;;;;;5029160;28;20053;-89
2022/01/20 07:15:10;;;;;;;54.80;29.45;;;7.10;99.90;;;;;;5028722;28;20045;-89
2022/01/20 07:17:36;;;;;;;53.20;28.63;;;7.00;99.90;;;;;;5027459;28;20037;-89
2022/01/20 07:20:03;;;;;;;56.83;29.73;;;7.00;99.90;;;;;;5027435;28;20041;-90
2022/01/20 07:22:28;;;;;;;51.83;29.55;;;7.00;99.90;;;;;;5027289;28;20030;-90
2022/01/20 07:24:54;;;;;;;53.60;30.42;;;7.00;99.90;;;;;;5030386;28;20114;-89
2022/01/20 07:27:20;;;;;;;57.78;30.83;;;7.00;99.90;;;;;;5036189;28;20532;-90
2022/01/20 07:29:45;;;;;;;62.22;29.70;;;7.00;99.90;;;;;;5036289;28;20033;-90
2022/01/20 07:32:11;;;;;;;55.75;29.00;;;7.00;99.90;;;;;;5031700;28;20421;-90
2022/01/20 07:34:37;;;;;;;59.13;30.75;;;7.00;99.90;;;;;;5034271;28;20109;-89
2022/01/20 07:37:04;;;;;;;65.53;34.63;;;7.10;99.90;;;;;;5033881;28;20477;-89
2022/01/20 07:39:30;;;;;;;64.85;32.75;;;7.10;99.90;;;;;;5033845;28;20037;-89
2022/01/20 07:41:55;;;;;;;63.50;30.42;;;7.10;99.90;;;;;;5032293;28;20546;-89
2022/01/20 07:44:23;;;;;;;62.50;31.00;;;7.10;99.90;;;;;;5032500;28;20041;-90
2022/01/20 07:46:49;;;;;;;72.65;31.70;;;7.00;99.90;;;;;;5032289;28;20441;-90
2022/01/20 07:49:16;;;;;;;62.67;31.05;;;7.00;99.90;;;;;;5032454;28;20029;-89
2022/01/20 07:51:43;;;;;;;63.72;30.67;;;7.00;99.90;;;;;;5033425;28;20075;-89
2022/01/20 07:54:09;;;;;;;71.72;32.65;;;7.00;99.90;;;;;;5032402;28;20028;-89
2022/01/20 07:56:35;;;;;;;73.47;31.95;;;7.10;99.90;;;;;;5032700;28;20026;-89
2022/01/20 07:59:00;;;;;;;67.18;31.55;;;7.10;99.90;;;;;;5048902;28;20474;-89
2022/01/20 08:01:26;;;;;;;65.93;29.58;;;7.20;99.90;;;;;;5033395;28;20112;-89
2022/01/20 08:03:53;;;;;;;63.38;29.95;;;7.10;99.90;;;;;;5033708;28;20025;-89
2022/01/20 08:06:22;;;;;;;69.03;30.42;;;7.20;99.90;;;;;;5032127;28;20049;-90
2022/01/20 08:08:50;;;;;;;70.20;31.27;;;7.20;99.90;;;;;;5031965;28;20444;-89
2022/01/20 08:11:21;;;;;;;68.72;29.05;;;7.30;99.90;;;;;;5032198;28;20501;-89
2022/01/20 08:13:47;;;;;;;65.68;29.77;;;7.30;99.90;;;;;;5033262;28;20026;-89
2022/01/20 08:16:13;;;;;;;377.33;50.90;;;7.30;99.90;;;;;;5033447;28;20067;-89
2022/01/20 08:18:39;;;;;;;52.30;28.05;;;7.40;99.90;;;;;;5032022;28;20021;-89
2022/01/20 08:21:04;;;;;;;58.13;28.50;;;7.50;99.90;;;;;;5032037;28;20098;-89
2022/01/20 08:23:30;;;;;;;59.15;26.65;;;7.40;99.90;;;;;;5031493;28;20030;-90
2022/01/20 08:25:56;;;;;;;50.20;25.13;;;7.30;99.90;;;;;;5031954;28;20052;-89
2022/01/20 08:28:23;;;;;;;51.90;24.05;;;7.30;99.90;;;;;;5033063;28;20022;-89
2022/01/20 08:30:49;;;;;;;51.35;25.67;;;7.30;99.90;;;;;;5034065;28;20018;-89
2022/01/20 08:33:15;;;;;;;47.88;24.13;;;7.40;99.90;;;;;;5032141;28;20027;-89
2022/01/20 08:35:41;;;;;;;44.03;23.25;;;7.30;99.90;;;;;;5032705;28;20029;-90
2022/01/20 08:38:07;;;;;;;40.70;22.60;;;7.40;99.90;;;;;;5032214;28;20056;-90
2022/01/20 08:40:35;;;;;;;42.60;22.58;;;7.40;99.90;;;;;;5033143;28;20038;-89
2022/01/20 08:43:01;;;;;;;40.80;20.73;;;7.40;99.90;;;;;;5032999;28;20041;-89
2022/01/20 08:45:31;;;;;;;39.63;20.45;;;7.40;99.90;;;;;;5032867;28;20482;-90
2022/01/20 08:47:57;;;;;;;39.28;20.27;;;7.30;99.90;;;;;;5032878;28;20445;-89
2022/01/20 08:50:25;;;;;;;38.00;20.63;;;7.40;99.90;;;;;;5031487;28;20406;-89
2022/01/20 08:52:52;;;;;;;37.42;19.55;;;7.40;99.90;;;;;;5032681;28;20025;-89
2022/01/20 08:55:18;;;;;;;34.72;18.65;;;7.40;99.90;;;;;;5032631;28;20033;-89
2022/01/20 08:57:45;;;;;;;36.47;18.98;;;7.40;99.90;;;;;;5032925;28;20056;-89
2022/01/20 09:00:12;;;;;;;40.53;19.88;;;7.40;99.90;;;;;;5032647;28;20037;-89
2022/01/20 09:02:38;;;;;;;30.10;17.05;;;7.40;99.90;;;;;;5032930;28;20487;-89
2022/01/20 09:05:05;;;;;;;30.73;16.65;;;7.50;99.90;;;;;;5030834;28;20025;-89
2022/01/20 09:07:31;;;;;;;33.70;17.42;;;7.60;99.90;;;;;;5032030;28;20022;-89
2022/01/20 09:10:00;;;;;;;29.95;16.58;;;7.60;99.90;;;;;;5032157;28;20021;-89
2022/01/20 09:17:41;;;;;;;24.38;14.30;;;7.70;99.90;;;;;;5032303;28;20252;-89
2022/01/20 09:20:08;;;;;;;21.27;13.25;;;7.70;99.90;;;;;;5032776;28;20331;-89
2022/01/20 09:22:33;;;;;;;23.00;13.68;;;7.70;99.90;;;;;;5031892;28;20041;-89
2022/01/20 09:24:59;;;;;;;23.20;12.18;;;7.70;99.90;;;;;;5030665;28;20374;-89
2022/01/20 09:27:25;;;;;;;20.45;12.00;;;7.80;99.90;;;;;;5032013;28;20502;-89
2022/01/20 09:29:50;;;;;;;16.63;10.40;;;7.80;99.90;;;;;;5030405;28;20029;-89
2022/01/20 09:32:19;;;;;;;17.48;10.70;;;7.80;99.90;;;;;;5031707;28;20078;-88
2022/01/20 09:34:45;;;;;;;21.23;10.85;;;7.80;99.90;;;;;;5031973;28;20127;-89
2022/01/20 09:37:11;;;;;;;19.58;11.98;;;7.80;99.90;;;;;;5031471;28;20474;-89
2022/01/20 09:39:38;;;;;;;21.13;12.00;;;7.90;99.90;;;;;;5031967;28;20025;-88
2022/01/20 09:42:05;;;;;;;17.50;11.75;;;7.90;99.90;;;;;;5031551;28;20029;-89
2022/01/20 09:44:31;;;;;;;16.77;11.68;;;7.90;99.90;;;;;;5031606;28;20029;-89
2022/01/20 09:46:57;;;;;;;18.80;11.50;;;7.90;99.90;;;;;;5030326;28;20025;-89
2022/01/20 09:49:22;;;;;;;18.90;11.95;;;8.00;99.90;;;;;;5031707;28;20020;-89
2022/01/20 09:51:48;;;;;;;18.35;12.40;;;8.00;99.90;;;;;;5031470;28;20087;-89
2022/01/20 09:54:14;;;;;;;19.08;11.43;;;8.00;99.90;;;;;;5031410;28;20022;-89
2022/01/20 09:56:44;;;;;;;15.98;11.73;;;8.20;99.90;;;;;;5030118;28;20040;-89
2022/01/20 09:59:10;;;;;;;17.45;11.65;;;8.30;99.90;;;;;;5031164;28;20061;-89
2022/01/20 10:01:42;;;;;;;21.38;12.57;;;8.30;99.90;;;;;;5031615;28;20549;-89
2022/01/20 10:04:23;;;;;;;20.48;11.45;;;8.40;99.90;;;;;;5031368;28;20030;-89
2022/01/20 10:06:59;;;;;;;25.42;12.13;;;8.50;99.90;;;;;;5029493;28;20116;-89
2022/01/20 10:09:36;;;;;;;17.35;11.50;;;8.50;99.90;;;;;;5029859;28;20026;-88
2022/01/20 10:12:04;;;;;;;18.85;12.02;;;8.60;99.90;;;;;;5029699;28;20026;-89
2022/01/20 10:14:51;;;;;;;20.88;12.98;;;8.70;99.90;;;;;;5029903;28;20504;-89
2022/01/20 10:17:24;;;;;;;22.48;12.15;;;8.70;99.90;;;;;;5029961;28;20029;-89
2022/01/20 10:19:55;;;;;;;22.20;13.25;;;8.60;99.90;;;;;;5031081;28;20057;-89
2022/01/20 10:22:23;;;;;;;23.25;13.50;;;8.60;99.90;;;;;;5031395;28;20031;-89
2022/01/20 10:25:04;;;;;;;21.55;13.38;;;8.60;99.90;;;;;;5030244;28;20402;-88
2022/01/20 10:27:33;;;;;;;24.60;13.38;;;8.70;99.90;;;;;;5030856;28;20171;-89
2022/01/20 10:30:07;;;;;;;21.73;12.88;;;8.60;99.90;;;;;;5029656;28;20013;-89
2022/01/20 10:32:41;;;;;;;22.90;12.70;;;8.60;99.90;;;;;;5030740;28;20286;-89
2022/01/20 10:35:09;;;;;;;23.70;13.45;;;8.70;99.90;;;;;;5030757;28;20096;-89
2022/01/20 10:37:35;;;;;;;21.27;13.90;;;8.80;99.90;;;;;;5030610;28;20036;-89
2022/01/20 10:40:13;;;;;;;23.20;12.18;;;8.90;99.90;;;;;;5030760;28;20038;-89
2022/01/20 10:42:43;;;;;;;21.92;12.60;;;8.80;99.90;;;;;;5030775;28;20452;-89
2022/01/20 10:45:27;;;;;;;23.52;13.38;;;8.90;99.90;;;;;;5030771;28;20026;-89
2022/01/20 10:47:57;;;;;;;21.80;12.57;;;8.80;99.90;;;;;;5030759;28;20207;-89
2022/01/20 10:50:27;;;;;;;25.92;13.52;;;8.80;99.90;;;;;;5031284;28;20030;-89
2022/01/20 10:52:53;;;;;;;23.35;13.75;;;8.90;99.90;;;;;;5030120;28;20129;-89
2022/01/20 10:55:29;;;;;;;22.88;13.48;;;8.90;99.90;;;;;;5031137;28;20021;-89
2022/01/20 10:57:56;;;;;;;22.52;13.23;;;9.00;99.90;;;;;;5030463;28;20034;-90
2022/01/20 11:00:25;;;;;;;20.70;12.55;;;9.00;99.90;;;;;;5028589;28;20401;-90
2022/01/20 11:02:57;;;;;;;21.10;13.65;;;9.00;99.90;;;;;;5029294;28;20028;-89
2022/01/20 11:05:25;;;;;;;22.33;13.27;;;8.90;99.90;;;;;;5029218;28;20479;-89
2022/01/20 11:07:54;;;;;;;26.75;14.30;;;8.80;99.90;;;;;;5028769;28;20116;-89
2022/01/20 11:10:20;;;;;;;21.90;13.55;;;8.80;99.90;;;;;;5029231;28;20104;-89
2022/01/20 11:12:46;;;;;;;20.20;12.45;;;8.90;99.90;;;;;;5031710;28;20021;-89
2022/01/20 11:15:16;;;;;;;21.83;12.38;;;9.00;99.90;;;;;;5031727;28;20120;-90
2022/01/20 11:17:42;;;;;;;22.10;12.80;;;9.20;99.90;;;;;;5029170;28;20498;-89
2022/01/20 11:20:15;;;;;;;20.40;12.20;;;9.30;99.90;;;;;;5029016;28;20038;-90
2022/01/20 11:23:12;;;;;;;20.75;12.52;;;9.50;99.90;;;;;;5029080;28;20025;-89
2022/01/20 11:25:40;;;;;;;20.90;12.55;;;9.50;99.90;;;;;;5009394;28;20036;-88
2022/01/20 11:28:08;;;;;;;25.80;12.40;;;9.50;99.90;;;;;;5030012;28;20410;-88
2022/01/20 11:30:39;;;;;;;19.70;11.40;;;9.40;99.90;;;;;;5032903;28;20044;-88
2022/01/20 11:33:08;;;;;;;22.60;12.30;;;9.30;99.90;;;;;;5030169;28;20045;-88
2022/01/20 11:35:46;;;;;;;21.52;12.57;;;9.20;99.90;;;;;;5036391;28;20028;-88
2022/01/20 11:38:14;;;;;;;22.42;13.40;;;9.30;99.90;;;;;;5047199;28;20108;-88
2022/01/20 11:40:56;;;;;;;20.02;12.50;;;9.50;99.90;;;;;;5047779;28;20405;-88
2022/01/20 11:43:47;;;;;;;23.48;12.20;;;9.60;99.90;;;;;;5048676;28;20067;-88
2022/01/20 11:46:15;;;;;;;21.08;12.60;;;9.70;99.90;;;;;;5049918;28;20032;-87
2022/01/20 11:49:03;;;;;;;19.00;13.07;;;9.80;99.90;;;;;;5032499;28;20026;-87
2022/01/20 11:51:47;;;;;;;19.58;11.65;;;10.00;99.90;;;;;;5029565;28;20195;-88
2022/01/20 11:54:27;;;;;;;20.35;12.45;;;10.20;99.90;;;;;;5029511;28;20105;-87
2022/01/20 11:57:15;;;;;;;19.13;11.90;;;10.40;99.90;;;;;;5029671;28;20057;-88
2022/01/20 12:00:40;;;;;;;19.55;11.82;;;10.40;99.90;;;;;;5028555;28;20038;-88
2022/01/20 12:03:14;;;;;;;18.02;10.82;;;10.40;99.90;;;;;;5027499;28;20065;-88
2022/01/20 12:05:40;;;;;;;18.05;11.18;;;10.40;99.90;;;;;;5028433;28;20409;-88
2022/01/20 12:08:11;;;;;;;21.42;12.10;;;10.40;99.90;;;;;;5029453;28;20080;-88
2022/01/20 12:10:38;;;;;;;19.85;11.63;;;10.10;99.90;;;;;;5029552;28;20075;-88
2022/01/20 12:13:12;;;;;;;21.73;11.65;;;9.80;99.90;;;;;;5032791;28;20026;-88
2022/01/20 12:15:57;;;;;;;27.20;11.27;;;9.70;99.90;;;;;;5033229;28;20050;-88
2022/01/20 12:18:23;;;;;;;18.83;11.25;;;9.70;99.90;;;;;;5033264;28;20033;-88
2022/01/20 12:20:49;;;;;;;22.83;11.80;;;9.80;99.90;;;;;;5033135;28;20034;-88
2022/01/20 12:23:16;;;;;;;16.35;9.68;;;10.00;99.90;;;;;;5033086;28;20064;-88
2022/01/20 12:25:42;;;;;;;17.17;9.90;;;10.20;99.90;;;;;;5033206;28;20360;-88
2022/01/20 12:28:10;;;;;;;18.13;9.65;;;10.20;99.90;;;;;;5032996;28;20101;-87
2022/01/20 12:30:40;;;;;;;20.23;9.73;;;10.10;99.90;;;;;;5048171;28;20039;-88
2022/01/20 12:33:14;;;;;;;20.05;11.20;;;10.30;99.90;;;;;;5032765;28;20075;-88
2022/01/20 12:35:44;;;;;;;20.85;11.02;;;10.50;99.90;;;;;;5032804;28;20025;-87
2022/01/20 12:38:35;;;;;;;17.48;10.13;;;10.60;99.90;;;;;;5032556;28;20051;-87
2022/01/20 12:41:07;;;;;;;19.83;10.60;;;10.40;99.90;;;;;;5031426;28;20075;-88
2022/01/20 12:43:53;;;;;;;17.95;9.82;;;10.00;99.90;;;;;;5032892;28;20072;-88
2022/01/20 12:46:25;;;;;;;22.55;11.43;;;9.60;99.90;;;;;;5031541;28;20025;-88
2022/01/20 12:48:59;;;;;;;21.77;11.00;;;9.30;99.90;;;;;;5048056;28;20117;-87
2022/01/20 12:51:41;;;;;;;18.40;10.63;;;9.20;99.90;;;;;;5030814;28;20018;-87
2022/01/20 12:54:16;;;;;;;19.15;11.38;;;9.20;99.90;;;;;;5032123;28;20037;-87
2022/01/20 12:56:50;;;;;;;22.67;10.35;;;9.30;99.90;;;;;;5032691;28;20017;-87
2022/01/20 12:59:20;;;;;;;18.33;10.00;;;9.40;99.90;;;;;;5032311;28;20120;-88
2022/01/20 13:01:47;;;;;;;18.30;8.75;;;9.70;99.90;;;;;;5031105;28;20026;-87
2022/01/20 13:04:16;;;;;;;19.98;8.65;;;10.10;99.90;;;;;;5031200;28;20092;-88
2022/01/20 13:06:46;;;;;;;15.55;8.25;;;10.30;99.90;;;;;;5030914;28;20028;-88
2022/01/20 13:09:13;;;;;;;15.45;8.15;;;10.30;99.90;;;;;;5032126;28;20092;-87
2022/01/20 13:11:46;;;;;;;15.07;7.95;;;10.10;99.90;;;;;;5032059;28;20025;-88
2022/01/20 13:14:12;;;;;;;10.27;6.50;;;10.10;99.90;;;;;;5030845;28;20037;-88
2022/01/20 13:16:55;;;;;;;18.00;7.53;;;10.30;99.90;;;;;;5030585;28;20084;-87
2022/01/20 13:19:46;;;;;;;16.05;7.25;;;10.40;99.90;;;;;;5032018;28;20666;-88
2022/01/20 13:22:54;;;;;;;13.98;7.28;;;10.30;99.90;;;;;;5031223;28;20026;-87
2022/01/20 13:25:25;;;;;;;16.60;6.85;;;10.20;99.90;;;;;;5032012;28;20276;-87
2022/01/20 13:27:56;;;;;;;16.23;7.07;;;10.10;99.90;;;;;;5031860;28;20021;-88
2022/01/20 13:30:47;;;;;;;16.55;5.97;;;9.90;99.90;;;;;;5031690;28;20025;-88
2022/01/20 13:33:27;;;;;;;14.90;6.25;;;9.70;99.90;;;;;;5031795;28;20083;-88
2022/01/20 13:36:01;;;;;;;12.15;6.05;;;9.80;99.90;;;;;;5031540;28;20033;-87
2022/01/20 13:38:31;;;;;;;11.15;6.07;;;9.80;99.90;;;;;;5031639;28;20025;-87
2022/01/20 13:41:07;;;;;;;19.40;9.10;;;9.70;99.90;;;;;;5031689;28;20142;-88
2022/01/20 13:46:21;;;;;;;13.20;6.60;;;9.70;99.90;;;;;;5031541;28;20642;-88
2022/01/20 13:48:47;;;;;;;12.07;6.50;;;9.80;99.90;;;;;;5031655;28;20478;-88
2022/01/20 13:51:17;;;;;;;17.17;6.93;;;9.90;99.90;;;;;;5029616;28;20029;-88
2022/01/20 13:53:42;;;;;;;16.83;6.53;;;10.00;99.90;;;;;;5046451;28;20390;-87
2022/01/20 13:56:10;;;;;;;36.10;13.55;;;10.10;99.90;;;;;;5031536;28;20028;-86